createdAt,value
2022-08-17T00:00:43.043Z,18.20
2022-08-17T00:03:24.260Z,18.20
2022-08-17T00:06:03.081Z,18.20
2022-08-17T00:08:39.470Z,18.20
2022-08-17T00:11:12.033Z,18.10
2022-08-17T00:13:47.258Z,18.10
2022-08-17T00:16:56.518Z,18.10
2022-08-17T00:19:24.709Z,18.10
2022-08-17T00:22:32.857Z,18.10
2022-08-17T00:24:44.520Z,18.10
2022-08-17T00:27:12.076Z,18.10
2022-08-17T00:29:39.766Z,18.00
2022-08-17T00:33:14.245Z,18.00
2022-08-17T00:34:55.252Z,18.10
2022-08-17T00:37:23.024Z,18.10
2022-08-17T00:39:50.678Z,18.10
2022-08-17T00:42:19.908Z,18.10
2022-08-17T00:44:48.192Z,18.10
2022-08-17T00:47:15.883Z,18.10
2022-08-17T00:49:43.702Z,18.10
2022-08-17T00:52:21.797Z,18.10
2022-08-17T00:54:54.121Z,18.00
2022-08-17T00:57:31.402Z,18.10
2022-08-17T01:00:08.993Z,18.10
2022-08-17T01:02:43.234Z,18.10
2022-08-17T01:05:21.124Z,18.10
2022-08-17T01:07:51.041Z,18.10
2022-08-17T01:10:59.083Z,18.10
2022-08-17T01:13:12.868Z,17.90
2022-08-17T01:15:51.167Z,17.80
2022-08-17T01:18:19.313Z,17.80
2022-08-17T01:20:55.094Z,17.80
2022-08-17T01:23:25.943Z,17.60
2022-08-17T01:25:57.739Z,17.50
2022-08-17T01:28:52.404Z,17.50
2022-08-17T01:31:19.264Z,17.50
2022-08-17T01:33:47.675Z,17.50
2022-08-17T01:36:15.589Z,17.60
2022-08-17T01:38:43.646Z,17.70
2022-08-17T01:41:16.510Z,17.70
2022-08-17T01:44:02.578Z,17.70
2022-08-17T01:46:36.036Z,17.80
2022-08-17T01:49:10.335Z,17.80
2022-08-17T01:51:39.185Z,17.80
2022-08-17T01:54:15.471Z,17.80
2022-08-17T01:56:49.607Z,17.70
2022-08-17T01:59:19.928Z,17.70
2022-08-17T02:01:49.023Z,17.60
2022-08-17T02:04:17.069Z,17.70
2022-08-17T02:06:53.598Z,17.70
2022-08-17T02:09:29.723Z,17.60
2022-08-17T02:12:05.763Z,17.60
2022-08-17T02:14:48.826Z,17.60
2022-08-17T02:17:16.560Z,17.70
2022-08-17T02:19:44.162Z,17.70
2022-08-17T02:22:12.259Z,17.50
2022-08-17T02:25:00.454Z,17.50
2022-08-17T02:27:28.648Z,17.40
2022-08-17T02:29:56.165Z,17.30
2022-08-17T02:32:27.464Z,17.30
2022-08-17T02:34:58.471Z,17.20
2022-08-17T02:37:30.404Z,17.10
2022-08-17T02:39:59.576Z,17.10
2022-08-17T02:42:33.861Z,17.00
2022-08-17T02:45:05.369Z,17.10
2022-08-17T02:47:33.842Z,17.10
2022-08-17T02:50:01.366Z,17.10
2022-08-17T02:52:43.038Z,17.00
2022-08-17T02:55:32.704Z,17.00
2022-08-17T02:58:01.819Z,16.90
2022-08-17T03:00:41.359Z,17.00
2022-08-17T03:03:13.645Z,17.00
2022-08-17T03:05:41.857Z,16.90
2022-08-17T03:08:13.067Z,16.70
2022-08-17T03:10:42.767Z,16.60
2022-08-17T03:13:13.333Z,16.60
2022-08-17T03:15:45.269Z,16.70
2022-08-17T03:18:19.304Z,16.80
2022-08-17T03:20:55.376Z,16.70
2022-08-17T03:23:25.433Z,16.80
2022-08-17T03:25:54.398Z,16.80
2022-08-17T03:28:23.560Z,16.90
2022-08-17T03:30:52.285Z,17.00
2022-08-17T03:33:20.451Z,17.00
2022-08-17T03:35:48.360Z,17.10
2022-08-17T03:38:18.096Z,17.10
2022-08-17T03:40:59.130Z,17.00
2022-08-17T03:43:31.129Z,17.00
2022-08-17T03:46:33.899Z,17.00
2022-08-17T03:49:27.261Z,16.90
2022-08-17T03:52:16.134Z,16.90
2022-08-17T03:55:03.850Z,17.00
2022-08-17T03:57:32.553Z,16.90
2022-08-17T04:00:00.544Z,16.90
2022-08-17T04:02:33.889Z,16.90
2022-08-17T04:05:05.537Z,17.00
2022-08-17T04:07:33.115Z,17.10
2022-08-17T04:10:00.948Z,17.20
2022-08-17T04:12:43.750Z,17.30
2022-08-17T04:15:12.772Z,17.40
2022-08-17T04:17:40.732Z,17.60
2022-08-17T04:20:09.084Z,17.70
2022-08-17T04:22:36.707Z,17.80
2022-08-17T04:25:16.597Z,17.90
2022-08-17T04:27:44.391Z,17.90
2022-08-17T04:30:13.799Z,18.00
2022-08-17T04:33:06.185Z,18.00
2022-08-17T04:35:43.019Z,18.10
2022-08-17T04:38:15.521Z,18.30
2022-08-17T04:41:03.393Z,18.50
2022-08-17T04:43:34.715Z,18.70
2022-08-17T04:46:16.069Z,18.70
2022-08-17T04:48:48.188Z,18.80
2022-08-17T04:51:28.096Z,18.80
2022-08-17T04:54:12.127Z,18.80
2022-08-17T04:56:43.176Z,18.90
2022-08-17T04:59:19.069Z,19.00
2022-08-17T05:01:50.676Z,19.20
2022-08-17T05:04:33.802Z,19.40
2022-08-17T05:07:04.282Z,19.60
2022-08-17T05:09:32.236Z,19.70
2022-08-17T05:12:03.623Z,19.80
2022-08-17T05:14:33.550Z,19.90
2022-08-17T05:17:09.432Z,19.90
2022-08-17T05:19:39.260Z,20.00
2022-08-17T05:22:07.198Z,20.00
2022-08-17T05:24:42.850Z,20.20
2022-08-17T05:27:20.522Z,20.20
2022-08-17T05:29:48.103Z,20.30
2022-08-17T05:32:47.896Z,20.30
2022-08-17T05:35:05.383Z,20.30
2022-08-17T05:37:33.447Z,20.30
2022-08-17T05:40:01.147Z,20.40
2022-08-17T05:42:28.988Z,20.40
2022-08-17T05:44:58.958Z,20.50
2022-08-17T05:47:27.635Z,20.60
2022-08-17T05:49:55.669Z,20.70
2022-08-17T05:53:03.905Z,20.90
2022-08-17T05:55:56.271Z,21.30
2022-08-17T05:58:49.708Z,21.20
2022-08-17T06:01:17.578Z,21.20
2022-08-17T06:04:21.356Z,21.20
2022-08-17T06:07:05.249Z,21.10
2022-08-17T06:09:54.848Z,21.30
2022-08-17T06:12:47.140Z,21.30
2022-08-17T06:15:56.487Z,21.50
2022-08-17T06:18:31.635Z,21.70
2022-08-17T06:21:06.350Z,22.40
2022-08-17T06:23:45.174Z,22.80
2022-08-17T06:26:37.333Z,22.70
2022-08-17T06:29:25.398Z,22.80
2022-08-17T06:31:53.164Z,23.60
2022-08-17T06:34:21.789Z,24.30
2022-08-17T06:37:16.231Z,26.00
2022-08-17T06:40:07.513Z,28.00
2022-08-17T06:42:54.861Z,28.80
2022-08-17T06:45:57.611Z,28.70
2022-08-17T06:48:40.963Z,29.30
2022-08-17T06:51:39.644Z,29.30
2022-08-17T06:54:21.054Z,30.00
2022-08-17T06:57:07.034Z,29.10
2022-08-17T06:59:56.737Z,29.20
2022-08-17T07:03:15.653Z,29.10
2022-08-17T07:05:57.485Z,30.00
2022-08-17T07:09:02.852Z,30.70
2022-08-17T07:11:56.184Z,30.60
2022-08-17T07:15:08.267Z,29.70
2022-08-17T07:17:47.170Z,30.60
2022-08-17T07:20:22.656Z,31.20
2022-08-17T07:23:13.083Z,31.30
2022-08-17T07:25:41.322Z,30.10
2022-08-17T07:28:09.410Z,30.90
2022-08-17T07:30:49.258Z,32.20
2022-08-17T07:33:26.088Z,32.50
2022-08-17T07:35:56.105Z,33.30
2022-08-17T07:38:31.277Z,32.50
2022-08-17T07:41:05.320Z,32.40
2022-08-17T07:43:39.493Z,33.20
2022-08-17T07:46:54.141Z,34.10
2022-08-17T07:49:39.523Z,33.20
2022-08-17T07:52:50.357Z,33.90
2022-08-17T07:55:35.142Z,34.10
2022-08-17T07:58:03.889Z,33.50
2022-08-17T08:00:33.806Z,32.90
2022-08-17T08:03:15.688Z,33.60
2022-08-17T08:05:57.966Z,34.70
2022-08-17T08:08:31.513Z,33.80
2022-08-17T08:11:15.525Z,32.80
2022-08-17T08:13:45.958Z,33.40
2022-08-17T08:16:29.808Z,34.40
2022-08-17T08:19:03.259Z,34.50
2022-08-17T08:21:50.542Z,35.90
2022-08-17T08:25:03.262Z,35.20
2022-08-17T08:27:54.004Z,34.30
2022-08-17T08:30:23.052Z,34.50
2022-08-17T08:33:04.314Z,35.20
2022-08-17T08:35:42.671Z,36.40
2022-08-17T08:38:54.010Z,36.70
2022-08-17T08:41:32.815Z,35.20
2022-08-17T08:45:00.176Z,36.40
2022-08-17T08:47:55.410Z,35.60
2022-08-17T08:50:40.751Z,35.20
2022-08-17T08:53:43.082Z,33.60
2022-08-17T08:57:21.523Z,32.70
2022-08-17T09:00:16.814Z,32.80
2022-08-17T09:03:28.071Z,34.40
2022-08-17T09:06:33.397Z,33.40
2022-08-17T09:09:31.339Z,32.20
2022-08-17T09:12:16.925Z,33.10
2022-08-17T09:15:01.836Z,33.90
2022-08-17T09:18:28.390Z,35.50
2022-08-17T09:21:22.526Z,35.00
2022-08-17T09:24:12.839Z,34.70
2022-08-17T09:26:52.195Z,34.60
2022-08-17T09:29:25.539Z,34.40
2022-08-17T09:32:05.064Z,32.90
2022-08-17T09:34:52.852Z,33.30
2022-08-17T09:37:33.796Z,35.30
2022-08-17T09:40:20.020Z,35.70
2022-08-17T09:43:03.137Z,34.00
2022-08-17T09:45:44.710Z,33.50
2022-08-17T09:48:27.892Z,33.20
2022-08-17T09:51:16.164Z,33.10
2022-08-17T09:53:44.819Z,34.10
2022-08-17T09:56:42.314Z,33.40
2022-08-17T09:59:25.158Z,34.00
2022-08-17T10:02:34.842Z,35.40
2022-08-17T10:05:47.622Z,35.10
2022-08-17T10:08:44.306Z,33.70
2022-08-17T10:11:57.541Z,33.90
2022-08-17T10:14:58.553Z,33.60
2022-08-17T10:18:21.599Z,33.80
2022-08-17T10:21:28.064Z,33.20
2022-08-17T10:25:21.436Z,33.80
2022-08-17T10:27:54.704Z,33.80
2022-08-17T10:30:28.839Z,32.60
2022-08-17T10:33:14.599Z,33.50
2022-08-17T10:36:11.416Z,34.30
2022-08-17T10:38:49.778Z,33.90
2022-08-17T10:41:38.159Z,35.00
2022-08-17T10:44:48.457Z,34.00
2022-08-17T10:47:19.537Z,33.80
2022-08-17T10:49:54.311Z,34.20
2022-08-17T10:52:29.967Z,33.50
2022-08-17T10:55:17.907Z,33.40
2022-08-17T10:57:50.250Z,32.70
2022-08-17T11:00:25.624Z,32.60
2022-08-17T11:02:58.125Z,33.20
2022-08-17T11:05:58.943Z,33.80
2022-08-17T11:08:51.998Z,34.00
2022-08-17T11:11:49.994Z,34.50
2022-08-17T11:15:05.452Z,33.70
2022-08-17T11:17:49.840Z,32.90
2022-08-17T11:21:01.522Z,32.90
2022-08-17T11:23:59.985Z,32.60
2022-08-17T11:26:37.497Z,32.80
2022-08-17T11:29:19.642Z,32.70
2022-08-17T11:32:34.130Z,32.90
2022-08-17T11:35:22.953Z,32.60
2022-08-17T11:38:14.064Z,33.50
2022-08-17T11:41:09.065Z,32.80
2022-08-17T11:43:56.694Z,33.20
2022-08-17T11:47:19.766Z,33.30
2022-08-17T11:50:59.503Z,33.60
2022-08-17T11:53:39.297Z,33.00
2022-08-17T11:56:10.617Z,33.30
2022-08-17T11:58:45.890Z,33.40
2022-08-17T12:01:57.189Z,33.10
2022-08-17T12:04:29.259Z,33.10
2022-08-17T12:07:23.258Z,31.80
2022-08-17T12:09:53.630Z,32.60
2022-08-17T12:12:33.216Z,32.70
2022-08-17T12:15:11.485Z,32.30
2022-08-17T12:17:42.931Z,33.30
2022-08-17T12:20:34.094Z,33.10
2022-08-17T12:23:11.167Z,32.90
2022-08-17T12:26:16.637Z,32.60
2022-08-17T12:28:49.221Z,32.80
2022-08-17T12:31:28.856Z,32.40
2022-08-17T12:33:57.714Z,32.30
2022-08-17T12:36:28.886Z,31.90
2022-08-17T12:39:14.597Z,32.10
2022-08-17T12:41:54.154Z,32.80
2022-08-17T12:44:34.981Z,32.80
2022-08-17T12:47:22.742Z,32.80
2022-08-17T12:50:05.795Z,32.60
2022-08-17T12:52:38.857Z,32.40
2022-08-17T12:55:13.655Z,31.70
2022-08-17T12:57:58.513Z,31.40
2022-08-17T13:00:34.856Z,31.10
2022-08-17T13:03:07.863Z,30.70
2022-08-17T13:05:37.486Z,30.70
2022-08-17T13:08:18.774Z,30.00
2022-08-17T13:11:05.228Z,30.50
2022-08-17T13:13:37.516Z,30.90
2022-08-17T13:16:28.814Z,31.10
2022-08-17T13:19:39.850Z,30.50
2022-08-17T13:22:12.887Z,30.80
2022-08-17T13:25:08.508Z,30.70
2022-08-17T13:27:36.300Z,30.00
2022-08-17T13:30:12.534Z,30.30
2022-08-17T13:32:47.270Z,30.70
2022-08-17T13:35:39.407Z,31.00
2022-08-17T13:38:49.686Z,30.90
2022-08-17T13:41:37.965Z,30.70
2022-08-17T13:44:40.489Z,31.10
2022-08-17T13:47:20.496Z,30.70
2022-08-17T13:49:49.530Z,31.00
2022-08-17T13:52:43.526Z,31.20
2022-08-17T13:55:22.844Z,30.80
2022-08-17T13:58:06.482Z,30.70
2022-08-17T14:00:36.869Z,31.10
2022-08-17T14:03:06.488Z,30.90
2022-08-17T14:05:38.084Z,30.80
2022-08-17T14:08:07.205Z,31.00
2022-08-17T14:10:36.669Z,31.00
2022-08-17T14:13:06.216Z,31.00
2022-08-17T14:15:55.004Z,32.10
2022-08-17T14:18:35.662Z,31.40
2022-08-17T14:21:13.764Z,30.60
2022-08-17T14:23:48.950Z,31.60
2022-08-17T14:26:23.395Z,31.10
2022-08-17T14:28:56.197Z,30.80
2022-08-17T14:31:27.762Z,30.50
2022-08-17T14:33:55.968Z,30.30
2022-08-17T14:36:23.896Z,30.30
2022-08-17T14:38:51.966Z,30.20
2022-08-17T14:41:22.274Z,30.10
2022-08-17T14:43:53.682Z,30.60
2022-08-17T14:46:21.701Z,29.90
2022-08-17T14:48:57.189Z,30.00
2022-08-17T14:51:29.467Z,30.40
2022-08-17T14:53:57.492Z,30.00
2022-08-17T14:56:26.013Z,29.40
2022-08-17T14:58:54.479Z,29.90
2022-08-17T15:01:25.068Z,30.00
2022-08-17T15:03:54.404Z,29.40
2022-08-17T15:06:24.805Z,29.20
2022-08-17T15:08:54.504Z,28.70
2022-08-17T15:11:22.791Z,28.50
2022-08-17T15:13:52.958Z,28.70
2022-08-17T15:16:21.827Z,28.80
2022-08-17T15:18:51.352Z,28.70
2022-08-17T15:21:20.299Z,28.60
2022-08-17T15:23:48.242Z,28.20
2022-08-17T15:26:16.982Z,28.10
2022-08-17T15:28:44.819Z,27.50
2022-08-17T15:31:31.617Z,26.80
2022-08-17T15:34:00.388Z,26.80
2022-08-17T15:36:28.460Z,26.70
2022-08-17T15:38:56.442Z,26.60
2022-08-17T15:41:25.709Z,26.50
2022-08-17T15:43:55.536Z,26.40
2022-08-17T15:46:26.109Z,26.30
2022-08-17T15:49:00.071Z,26.20
2022-08-17T15:51:35.596Z,26.20
2022-08-17T15:54:19.280Z,26.20
2022-08-17T15:56:51.608Z,26.20
2022-08-17T15:59:19.612Z,26.10
2022-08-17T16:03:14.330Z,26.10
2022-08-17T16:04:38.059Z,26.00
2022-08-17T16:07:12.087Z,26.00
2022-08-17T16:09:40.786Z,25.90
2022-08-17T16:12:14.933Z,25.80
2022-08-17T16:14:48.956Z,25.70
2022-08-17T16:17:38.762Z,25.60
2022-08-17T16:20:06.651Z,25.60
2022-08-17T16:22:46.591Z,25.60
2022-08-17T16:25:20.679Z,25.50
2022-08-17T16:27:53.456Z,25.40
2022-08-17T16:30:26.294Z,25.40
2022-08-17T16:32:56.744Z,25.30
2022-08-17T16:35:27.078Z,25.20
2022-08-17T16:37:58.980Z,25.10
2022-08-17T16:40:29.651Z,25.00
2022-08-17T16:43:01.534Z,24.90
2022-08-17T16:45:36.792Z,24.80
2022-08-17T16:48:05.275Z,24.80
2022-08-17T16:50:36.999Z,24.70
2022-08-17T16:53:18.016Z,24.60
2022-08-17T16:55:53.203Z,24.60
2022-08-17T16:58:24.152Z,24.50
2022-08-17T17:00:52.393Z,24.30
2022-08-17T17:03:29.332Z,24.30
2022-08-17T17:06:18.603Z,24.20
2022-08-17T17:09:17.641Z,24.10
2022-08-17T17:11:59.645Z,24.10
2022-08-17T17:14:45.280Z,24.00
2022-08-17T17:17:30.694Z,23.90
2022-08-17T17:20:14.175Z,23.90
2022-08-17T17:23:24.530Z,23.80
2022-08-17T17:26:27.513Z,23.80
2022-08-17T17:29:19.414Z,23.70
2022-08-17T17:32:29.242Z,23.70
2022-08-17T17:35:11.585Z,23.50
2022-08-17T17:37:43.622Z,23.40
2022-08-17T17:40:38.293Z,23.40
2022-08-17T17:43:36.878Z,23.30
2022-08-17T17:46:29.270Z,23.40
2022-08-17T17:49:06.320Z,23.30
2022-08-17T17:52:19.010Z,23.20
2022-08-17T17:55:25.381Z,23.00
2022-08-17T17:58:42.833Z,23.00
2022-08-17T18:01:47.073Z,22.80
2022-08-17T18:04:31.486Z,22.70
2022-08-17T18:07:32.663Z,22.60
2022-08-17T18:10:29.371Z,22.50
2022-08-17T18:13:56.913Z,22.40
2022-08-17T18:16:32.051Z,22.30
2022-08-17T18:19:01.436Z,22.20
2022-08-17T18:21:46.177Z,22.10
2022-08-17T18:24:36.363Z,22.00
2022-08-17T18:27:51.018Z,21.80
2022-08-17T18:30:19.595Z,21.70
2022-08-17T18:32:47.962Z,21.60
2022-08-17T18:35:18.756Z,21.40
2022-08-17T18:38:21.641Z,21.30
2022-08-17T18:41:25.543Z,21.20
2022-08-17T18:44:23.711Z,21.20
2022-08-17T18:47:08.431Z,21.20
2022-08-17T18:49:36.493Z,21.20
2022-08-17T18:52:11.103Z,21.10
2022-08-17T18:54:39.053Z,21.20
2022-08-17T18:57:12.646Z,21.20
2022-08-17T18:59:48.487Z,21.10
2022-08-17T19:02:45.652Z,21.10
2022-08-17T19:05:47.014Z,21.10
2022-08-17T19:08:31.059Z,21.10
2022-08-17T19:11:09.785Z,21.10
2022-08-17T19:13:53.893Z,21.00
2022-08-17T19:16:40.645Z,20.90
2022-08-17T19:19:27.160Z,20.90
2022-08-17T19:22:27.784Z,20.90
2022-08-17T19:25:18.499Z,20.90
2022-08-17T19:28:03.570Z,20.80
2022-08-17T19:30:37.263Z,20.70
2022-08-17T19:33:10.958Z,20.80
2022-08-17T19:36:23.060Z,20.70
2022-08-17T19:39:52.771Z,20.70
2022-08-17T19:43:01.247Z,20.70
2022-08-17T19:46:15.167Z,20.80
2022-08-17T19:49:15.194Z,20.70
2022-08-17T19:51:53.398Z,20.70
2022-08-17T19:54:47.501Z,20.70
2022-08-17T19:57:48.494Z,20.70
2022-08-17T20:00:19.780Z,20.70
2022-08-17T20:02:58.192Z,20.70
2022-08-17T20:05:31.109Z,20.80
2022-08-17T20:08:17.813Z,20.70
2022-08-17T20:11:21.389Z,20.60
2022-08-17T20:14:12.470Z,20.50
2022-08-17T20:16:41.748Z,20.40
2022-08-17T20:19:56.217Z,20.40
2022-08-17T20:22:49.794Z,20.40
2022-08-17T20:26:10.308Z,20.40
2022-08-17T20:28:59.859Z,20.50
2022-08-17T20:32:06.846Z,20.50
2022-08-17T20:34:39.899Z,20.50
2022-08-17T20:37:24.983Z,20.50
2022-08-17T20:39:53.013Z,20.40
2022-08-17T20:42:21.281Z,20.30
2022-08-17T20:44:59.697Z,20.30
2022-08-17T20:48:16.000Z,20.20
2022-08-17T20:50:52.976Z,20.20
2022-08-17T20:53:55.052Z,20.10
2022-08-17T20:56:44.831Z,20.10
2022-08-17T20:59:24.339Z,20.10
2022-08-17T21:02:17.716Z,20.10
2022-08-17T21:04:51.503Z,20.10
2022-08-17T21:07:41.144Z,20.10
2022-08-17T21:10:25.683Z,20.10
2022-08-17T21:13:15.337Z,20.00
2022-08-17T21:16:26.259Z,20.00
2022-08-17T21:19:12.006Z,20.00
2022-08-17T21:22:26.443Z,19.90
2022-08-17T21:25:32.639Z,19.90
2022-08-17T21:28:19.810Z,20.00
2022-08-17T21:31:09.200Z,19.90
2022-08-17T21:33:39.991Z,19.90
2022-08-17T21:36:13.516Z,19.80
2022-08-17T21:38:57.025Z,19.80
2022-08-17T21:41:46.640Z,19.80
2022-08-17T21:44:35.057Z,19.90
2022-08-17T21:47:20.820Z,19.80
2022-08-17T21:49:49.175Z,19.70
2022-08-17T21:52:21.233Z,19.80
2022-08-17T21:54:58.666Z,19.80
2022-08-17T21:57:30.220Z,19.80
2022-08-17T22:00:02.956Z,19.70
2022-08-17T22:02:41.900Z,19.70
2022-08-17T22:05:14.634Z,19.70
2022-08-17T22:07:58.783Z,19.70
2022-08-17T22:10:43.689Z,19.70
2022-08-17T22:13:30.294Z,19.70
2022-08-17T22:16:29.270Z,19.60
2022-08-17T22:18:59.864Z,19.60
2022-08-17T22:21:30.482Z,19.60
2022-08-17T22:24:21.960Z,19.60
2022-08-17T22:27:11.977Z,19.60
2022-08-17T22:29:59.302Z,19.60
2022-08-17T22:32:46.615Z,19.60
2022-08-17T22:35:29.301Z,19.50
2022-08-17T22:37:57.836Z,19.50
2022-08-17T22:40:32.580Z,19.50
2022-08-17T22:43:03.630Z,19.50
2022-08-17T22:45:33.704Z,19.50
2022-08-17T22:48:02.295Z,19.50
2022-08-17T22:50:33.399Z,19.40
2022-08-17T22:53:37.186Z,19.30
2022-08-17T22:56:25.990Z,19.30
2022-08-17T22:59:17.057Z,19.20
2022-08-17T23:02:14.215Z,19.20
2022-08-17T23:04:47.876Z,19.20
2022-08-17T23:07:17.535Z,19.00
2022-08-17T23:09:46.374Z,19.00
2022-08-17T23:12:22.618Z,19.00
2022-08-17T23:15:01.649Z,19.00
2022-08-17T23:17:37.225Z,19.10
2022-08-17T23:20:09.421Z,19.10
2022-08-17T23:22:51.431Z,19.10
2022-08-17T23:25:33.923Z,19.10
2022-08-17T23:28:05.334Z,19.20
2022-08-17T23:30:44.229Z,19.10
2022-08-17T23:33:29.960Z,19.10
2022-08-17T23:35:58.938Z,19.10
2022-08-17T23:38:28.215Z,19.10
2022-08-17T23:41:02.800Z,19.00
2022-08-17T23:43:31.787Z,19.00
2022-08-17T23:46:03.794Z,19.00
2022-08-17T23:48:36.540Z,19.00
2022-08-17T23:51:36.129Z,19.00
2022-08-17T23:54:13.585Z,19.10
2022-08-17T23:56:47.336Z,19.10
2022-08-17T23:59:18.660Z,19.10
